Fort McPherson, Georgia
Current Conditions -  °F | °C
As of 8:52 AM on Friday 24 Oct 2014 (Local Time) from KATL Reporting Station
Broken Clouds Broken Clouds  
Wind Chill: 54°   Ceiling: 25000
Heat Index: 54°   Visibility: 10mi
Dew Point: 46°   Wind: 0mph
Humidity: 75%   Direction: NA
Pressure: 30.07"   Gusts: NA
Location:  33.7264°N, 84.4263°W
Report Text: KATL 241252Z 00000KT 10SM FEW130 SCT180 BKN250 12/08 A3007 RMK AO2 SLP181 VIRGA DSNT N-NE & SW & W ACC DSNT NE & SW & W T01220078
Loading
Personal Weather Stations






























Interactive Weather Map
Tropical Storm Tracking
New forecast layout! Learn more

10-Day Weather Forecast

Advertisements
Track Severe Weather on mobile